Terminal Aerodrome Forecast
Issued by NWS Twin Cities, MN

Home | Current Version | Previous Version | Text Only | Print | Product List | Glossary Off
Versions: 1 2 3 4 5 6 7 8 9 10 11 12 13 14 15 16 17 18 19 20 21 22 23 24

000
FTUS43 KMPX 202320
TAFMSP
TAF
KMSP 202320Z 2100/2206 30008KT P6SM BKN070
     FM210200 VRB04KT P6SM FEW250
     FM211300 15007KT P6SM VCSH SCT200
     FM211800 15011G17KT P6SM SCT050 BKN110
     FM212300 14009KT P6SM VCSH SCT035 OVC100=

USA.gov is the U.S. government's official web portal to all federal, state and local government web resources and services.